Time;durP1;ratioP1;P1;durP2;ratioP2;P2;SDS_P1;SDS_P2;PMS_P1;PMS_P2;Temp;Humidity;BMP_temperature;BMP_pressure;BME280_temperature;BME280_humidity;BME280_pressure;Samples;Min_cycle;Max_cycle;Signal;HPM_P1;HPM_P2
2022/08/07 00:00:12;;;;;;;2.78;1.52;;;19.60;73.80;;;;;;5019848;28;20026;-86
2022/08/07 00:02:37;;;;;;;2.90;1.73;;;19.60;74.10;;;;;;4989234;28;20053;-87
2022/08/07 00:05:04;;;;;;;3.63;1.73;;;19.50;74.70;;;;;;5032868;28;20083;-87
2022/08/07 00:07:29;;;;;;;3.08;1.70;;;19.50;74.40;;;;;;5016278;28;20029;-88
2022/08/07 00:09:55;;;;;;;4.57;1.80;;;19.50;74.60;;;;;;4983117;28;20049;-86
2022/08/07 00:12:21;;;;;;;3.58;2.00;;;19.40;75.20;;;;;;4996652;28;20033;-87
2022/08/07 00:14:46;;;;;;;3.90;1.60;;;19.40;74.70;;;;;;5012968;28;20041;-87
2022/08/07 00:17:12;;;;;;;3.17;2.00;;;19.40;74.80;;;;;;5002984;28;20049;-87
2022/08/07 00:19:37;;;;;;;3.28;1.90;;;19.30;74.80;;;;;;5000438;28;20049;-87
2022/08/07 00:22:03;;;;;;;3.35;2.10;;;19.20;74.70;;;;;;4996386;28;20525;-87
2022/08/07 00:24:29;;;;;;;4.10;2.22;;;19.20;74.80;;;;;;4995640;28;20038;-87
2022/08/07 00:26:55;;;;;;;4.35;2.17;;;19.20;74.70;;;;;;5009528;28;20030;-86
2022/08/07 00:29:24;;;;;;;4.32;2.15;;;19.20;74.80;;;;;;4996251;28;20030;-86
2022/08/07 00:31:52;;;;;;;5.10;2.42;;;19.10;75.10;;;;;;5011958;28;20146;-86
2022/08/07 00:34:18;;;;;;;4.22;2.00;;;19.10;75.20;;;;;;5011809;28;20029;-87
2022/08/07 00:36:43;;;;;;;5.30;2.38;;;19.10;75.50;;;;;;4998242;28;20026;-87
2022/08/07 00:39:11;;;;;;;3.60;2.38;;;19.00;75.60;;;;;;5009850;28;20026;-88
2022/08/07 00:41:38;;;;;;;6.05;2.65;;;19.00;75.60;;;;;;4996069;28;20026;-87
2022/08/07 00:44:04;;;;;;;3.13;2.13;;;18.90;75.80;;;;;;5007240;28;20022;-87
2022/08/07 00:46:30;;;;;;;3.88;2.33;;;18.90;76.00;;;;;;4995840;28;20033;-87
2022/08/07 00:49:00;;;;;;;4.28;2.80;;;18.90;76.20;;;;;;5012320;28;20026;-86
2022/08/07 00:51:28;;;;;;;5.03;2.67;;;18.80;76.40;;;;;;5009238;28;20064;-87
2022/08/07 00:53:53;;;;;;;4.38;2.60;;;18.80;76.50;;;;;;5013329;28;20030;-86
2022/08/07 00:56:20;;;;;;;6.55;2.65;;;18.80;76.60;;;;;;4996183;28;20429;-87
2022/08/07 00:58:46;;;;;;;4.22;2.67;;;18.70;76.60;;;;;;5012609;28;20034;-87
2022/08/07 01:01:12;;;;;;;5.13;2.80;;;18.70;76.80;;;;;;5002810;28;20034;-87
2022/08/07 01:03:39;;;;;;;4.28;2.92;;;18.70;77.10;;;;;;5013335;28;20088;-88
2022/08/07 01:06:05;;;;;;;7.43;4.15;;;18.70;77.30;;;;;;5005235;28;20458;-87
2022/08/07 01:08:31;;;;;;;3.97;3.10;;;18.70;77.30;;;;;;5014658;28;20052;-87
2022/08/07 01:10:57;;;;;;;5.50;3.10;;;18.60;77.30;;;;;;5026346;28;20029;-87
2022/08/07 01:13:23;;;;;;;3.67;2.53;;;18.60;77.40;;;;;;5035829;28;20037;-86
2022/08/07 01:15:50;;;;;;;4.18;3.08;;;18.60;77.60;;;;;;5024604;28;20033;-87
2022/08/07 01:18:17;;;;;;;6.00;3.10;;;18.50;77.70;;;;;;4983334;28;20030;-87
2022/08/07 01:20:47;;;;;;;5.80;3.10;;;18.50;77.80;;;;;;5018848;28;20021;-87
2022/08/07 01:23:15;;;;;;;4.75;2.90;;;18.50;77.80;;;;;;5032727;28;20079;-86
2022/08/07 01:25:42;;;;;;;5.68;3.20;;;18.50;78.00;;;;;;5024152;28;20029;-87
2022/08/07 01:28:07;;;;;;;4.32;2.97;;;18.40;77.90;;;;;;5021222;28;20120;-87
2022/08/07 01:30:37;;;;;;;5.85;3.40;;;18.40;77.90;;;;;;5018772;28;20477;-87
2022/08/07 01:33:03;;;;;;;5.85;3.30;;;18.40;78.10;;;;;;5036124;28;20526;-87
2022/08/07 01:35:29;;;;;;;5.03;3.00;;;18.30;78.20;;;;;;5018765;28;20112;-86
2022/08/07 01:37:55;;;;;;;5.18;3.40;;;18.30;78.30;;;;;;5034966;28;20029;-86
2022/08/07 01:40:23;;;;;;;5.53;3.22;;;18.30;78.30;;;;;;5036074;28;20021;-87
2022/08/07 01:42:49;;;;;;;5.32;3.33;;;18.30;78.10;;;;;;5035203;28;20025;-87
2022/08/07 01:45:15;;;;;;;6.22;3.60;;;18.20;78.20;;;;;;5018495;28;20070;-86
2022/08/07 01:47:41;;;;;;;5.68;3.30;;;18.20;78.30;;;;;;5018005;28;20026;-86
2022/08/07 01:50:07;;;;;;;6.10;3.08;;;18.20;78.40;;;;;;5035885;28;20385;-87
2022/08/07 01:52:35;;;;;;;5.35;3.70;;;18.10;78.40;;;;;;5035594;28;20025;-87
2022/08/07 01:55:01;;;;;;;7.20;3.22;;;18.10;78.50;;;;;;5018673;28;20026;-87
2022/08/07 01:57:28;;;;;;;4.47;3.55;;;18.10;78.60;;;;;;4986061;28;20104;-87
2022/08/07 02:00:07;;;;;;;5.15;3.30;;;18.10;78.80;;;;;;5014897;28;20118;-86
2022/08/07 02:02:45;;;;;;;6.40;3.33;;;18.00;78.90;;;;;;5033614;28;20056;-86
2022/08/07 02:05:17;;;;;;;5.03;3.40;;;18.00;78.90;;;;;;5035431;28;20072;-86
2022/08/07 02:07:51;;;;;;;5.20;3.35;;;17.90;78.80;;;;;;5035896;28;20489;-86
2022/08/07 02:10:21;;;;;;;4.15;3.20;;;18.00;79.20;;;;;;5035593;28;20160;-87
2022/08/07 02:12:48;;;;;;;5.40;3.10;;;17.90;79.10;;;;;;5012707;28;20021;-87
2022/08/07 02:15:17;;;;;;;4.72;3.40;;;17.80;79.30;;;;;;5016943;28;20029;-86
2022/08/07 02:17:44;;;;;;;7.40;3.63;;;17.80;79.40;;;;;;5035134;28;20023;-86
2022/08/07 02:20:11;;;;;;;4.68;3.30;;;17.80;79.60;;;;;;4996643;28;20470;-87
2022/08/07 02:22:39;;;;;;;7.25;3.58;;;17.80;79.70;;;;;;4999798;28;20034;-86
2022/08/07 02:25:08;;;;;;;5.60;3.38;;;17.80;79.70;;;;;;5018107;28;20350;-86
2022/08/07 02:27:34;;;;;;;5.43;3.30;;;17.70;79.70;;;;;;5018038;28;20450;-87
2022/08/07 02:30:01;;;;;;;6.57;3.45;;;17.70;79.90;;;;;;5017562;28;20018;-86
2022/08/07 02:32:27;;;;;;;6.78;3.70;;;17.70;79.80;;;;;;5026212;28;20029;-86
2022/08/07 02:34:55;;;;;;;7.05;4.05;;;17.60;79.80;;;;;;5017284;28;20075;-87
2022/08/07 02:37:22;;;;;;;8.60;4.03;;;17.60;80.00;;;;;;5024800;28;20026;-86
2022/08/07 02:39:49;;;;;;;6.72;3.95;;;17.60;80.20;;;;;;5033886;28;20087;-86
2022/08/07 02:42:16;;;;;;;6.35;4.47;;;17.60;80.40;;;;;;5035428;28;20448;-86
2022/08/07 02:44:44;;;;;;;6.28;4.10;;;17.50;80.50;;;;;;5033838;28;20022;-86
2022/08/07 02:47:11;;;;;;;6.57;3.60;;;17.50;80.50;;;;;;5035246;28;20196;-86
2022/08/07 02:49:37;;;;;;;6.25;3.90;;;17.50;80.80;;;;;;5017711;28;20029;-87
2022/08/07 02:52:04;;;;;;;6.10;3.70;;;17.40;80.80;;;;;;5033766;28;20033;-86
2022/08/07 02:54:32;;;;;;;7.35;4.25;;;17.40;81.00;;;;;;5033935;28;20477;-86
2022/08/07 02:57:00;;;;;;;5.60;3.83;;;17.40;81.10;;;;;;5017441;28;20017;-86
2022/08/07 02:59:27;;;;;;;5.70;3.72;;;17.30;81.20;;;;;;5033824;28;20021;-86
2022/08/07 03:01:54;;;;;;;5.93;3.72;;;17.30;81.50;;;;;;5024864;28;20083;-86
2022/08/07 03:04:21;;;;;;;6.80;4.18;;;17.20;81.60;;;;;;5042566;28;20113;-86
2022/08/07 03:06:48;;;;;;;5.43;3.80;;;17.30;81.60;;;;;;5037969;28;20032;-86
2022/08/07 03:09:17;;;;;;;5.57;3.95;;;17.20;81.90;;;;;;5010656;28;20046;-86
2022/08/07 03:11:43;;;;;;;6.65;4.10;;;17.20;82.20;;;;;;5014526;28;20029;-86
2022/08/07 03:14:09;;;;;;;6.32;3.95;;;17.10;82.40;;;;;;5030634;28;20034;-86
2022/08/07 03:16:35;;;;;;;5.45;3.78;;;17.10;82.50;;;;;;4997603;28;20084;-86
2022/08/07 03:19:01;;;;;;;6.07;3.83;;;17.10;82.70;;;;;;5035171;28;20029;-88
2022/08/07 03:21:28;;;;;;;5.88;3.55;;;17.10;82.80;;;;;;5036907;28;20081;-88
2022/08/07 03:23:56;;;;;;;7.15;4.15;;;17.10;82.90;;;;;;5037761;28;20085;-86
2022/08/07 03:26:26;;;;;;;4.85;3.63;;;17.10;83.10;;;;;;5037422;28;20102;-88
2022/08/07 03:28:54;;;;;;;6.20;4.43;;;17.10;83.30;;;;;;5037844;28;20030;-87
2022/08/07 03:31:22;;;;;;;7.15;3.80;;;17.00;83.30;;;;;;5034216;28;20025;-87
2022/08/07 03:33:58;;;;;;;6.68;3.90;;;17.00;83.90;;;;;;5020294;28;20034;-86
2022/08/07 03:36:26;;;;;;;8.30;3.78;;;17.00;83.50;;;;;;5024327;28;20034;-88
2022/08/07 03:38:56;;;;;;;9.15;4.38;;;16.90;83.50;;;;;;5001922;28;20026;-86
2022/08/07 03:41:22;;;;;;;6.22;3.58;;;16.90;83.50;;;;;;5013271;28;20022;-86
2022/08/07 03:43:48;;;;;;;5.20;4.00;;;16.90;83.60;;;;;;5010140;28;20023;-86
2022/08/07 03:46:14;;;;;;;7.05;4.50;;;16.90;83.90;;;;;;4999987;28;20027;-86
2022/08/07 03:48:40;;;;;;;6.47;3.78;;;16.90;83.90;;;;;;5009234;28;20026;-86
2022/08/07 03:51:07;;;;;;;5.50;4.00;;;16.80;84.00;;;;;;5012934;28;20100;-86
2022/08/07 03:53:33;;;;;;;6.43;4.25;;;16.80;84.30;;;;;;5012840;28;20076;-88
2022/08/07 03:56:00;;;;;;;7.72;3.78;;;16.80;84.40;;;;;;4996255;28;20034;-88
2022/08/07 03:58:27;;;;;;;5.75;3.95;;;16.70;84.50;;;;;;5002355;28;20536;-86
2022/08/07 04:00:55;;;;;;;8.55;4.15;;;16.70;84.50;;;;;;5011809;28;20089;-86
2022/08/07 04:03:20;;;;;;;6.43;4.13;;;16.70;84.60;;;;;;5012649;28;20038;-87
2022/08/07 04:05:46;;;;;;;10.63;3.83;;;16.70;84.70;;;;;;5024328;28;20073;-87
2022/08/07 04:08:15;;;;;;;6.97;4.18;;;16.70;84.90;;;;;;4992896;28;20030;-87
2022/08/07 04:10:42;;;;;;;6.93;4.05;;;16.60;85.00;;;;;;5029137;28;20092;-86
2022/08/07 04:13:11;;;;;;;6.70;4.38;;;16.60;85.10;;;;;;5032412;28;20492;-87
2022/08/07 04:15:37;;;;;;;11.73;4.32;;;16.60;85.30;;;;;;5033427;28;20030;-87
2022/08/07 04:18:03;;;;;;;6.93;4.30;;;16.60;85.40;;;;;;5019146;28;20083;-88
2022/08/07 04:20:30;;;;;;;5.93;4.18;;;16.50;85.50;;;;;;5015858;28;20026;-87
2022/08/07 04:22:57;;;;;;;7.30;4.15;;;16.50;85.70;;;;;;4999349;28;20039;-87
2022/08/07 04:25:23;;;;;;;6.55;4.50;;;16.50;85.80;;;;;;5013391;28;20034;-87
2022/08/07 04:27:49;;;;;;;6.97;4.15;;;16.50;86.00;;;;;;4995856;28;20048;-86
2022/08/07 04:30:16;;;;;;;6.95;4.55;;;16.40;86.10;;;;;;5033877;28;20026;-86
2022/08/07 04:32:42;;;;;;;6.93;3.78;;;16.40;86.30;;;;;;5032494;28;20126;-86
2022/08/07 04:35:08;;;;;;;7.15;4.18;;;16.40;86.50;;;;;;4979999;28;20085;-87
2022/08/07 04:37:34;;;;;;;6.88;4.13;;;16.40;86.80;;;;;;5013451;28;20057;-87
2022/08/07 04:40:01;;;;;;;5.82;4.05;;;16.40;86.90;;;;;;5020296;28;20112;-87
2022/08/07 04:42:30;;;;;;;6.70;4.40;;;16.30;86.80;;;;;;5017674;28;20026;-87
2022/08/07 04:44:57;;;;;;;6.80;4.00;;;16.30;87.20;;;;;;5014695;28;20528;-87
2022/08/07 04:47:35;;;;;;;4.97;2.53;;;16.20;87.80;;;;;;5017115;28;20128;-86
2022/08/07 04:50:20;;;;;;;4.13;2.22;;;16.20;89.40;;;;;;5016668;28;20032;-86
2022/08/07 04:52:58;;;;;;;6.85;3.70;;;16.20;89.40;;;;;;5021291;28;20404;-86
2022/08/07 04:55:40;;;;;;;6.85;4.82;;;16.10;89.30;;;;;;5016684;28;20033;-87
2022/08/07 04:58:33;;;;;;;6.57;4.47;;;16.10;89.20;;;;;;5025192;28;20017;-87
2022/08/07 05:01:12;;;;;;;11.43;4.72;;;16.10;89.30;;;;;;5027446;28;20021;-86
2022/08/07 05:03:56;;;;;;;6.88;4.80;;;16.10;89.30;;;;;;5032567;28;20132;-87
2022/08/07 05:06:30;;;;;;;8.45;4.45;;;16.10;89.60;;;;;;5019272;28;20026;-86
2022/08/07 05:09:07;;;;;;;7.70;5.05;;;16.10;89.90;;;;;;5019869;28;20041;-86
2022/08/07 05:11:48;;;;;;;7.05;4.90;;;16.10;90.10;;;;;;5019051;28;20040;-87
2022/08/07 05:14:25;;;;;;;16.90;5.43;;;16.10;90.30;;;;;;5017141;28;20026;-88
2022/08/07 05:16:55;;;;;;;8.77;4.68;;;16.00;90.40;;;;;;4999038;28;20030;-87
2022/08/07 05:19:24;;;;;;;7.80;4.88;;;16.10;90.50;;;;;;5016577;28;20026;-87
2022/08/07 05:21:54;;;;;;;9.30;4.80;;;16.10;90.70;;;;;;5016612;28;20030;-87
2022/08/07 05:24:22;;;;;;;6.63;4.80;;;16.10;90.90;;;;;;5016016;28;20018;-87
2022/08/07 05:26:52;;;;;;;8.05;5.18;;;16.10;91.10;;;;;;5015985;28;20061;-88
2022/08/07 05:29:20;;;;;;;8.90;5.55;;;16.10;91.30;;;;;;5016436;28;20030;-88
2022/08/07 05:31:48;;;;;;;9.07;5.15;;;16.10;91.40;;;;;;4999733;28;20474;-86
2022/08/07 05:34:15;;;;;;;12.05;6.20;;;16.20;91.50;;;;;;5016292;28;20089;-88
2022/08/07 05:36:46;;;;;;;11.15;5.20;;;16.20;91.70;;;;;;5015777;28;20382;-87
2022/08/07 05:39:14;;;;;;;9.70;6.32;;;16.20;91.80;;;;;;5015529;28;20033;-88
2022/08/07 05:41:41;;;;;;;10.10;5.80;;;16.30;92.00;;;;;;5016030;28;20489;-86
2022/08/07 05:44:08;;;;;;;9.55;5.55;;;16.30;92.10;;;;;;5015706;28;20018;-87
2022/08/07 05:46:36;;;;;;;8.82;6.72;;;16.30;92.20;;;;;;5012119;28;20052;-87
2022/08/07 05:49:05;;;;;;;8.23;6.00;;;16.40;92.30;;;;;;4990153;28;20026;-88
2022/08/07 05:51:31;;;;;;;9.88;6.60;;;16.40;92.30;;;;;;5018567;28;20557;-87
2022/08/07 05:53:56;;;;;;;8.75;5.88;;;16.40;92.30;;;;;;5015478;28;20034;-87
2022/08/07 05:56:23;;;;;;;9.73;6.30;;;16.50;92.40;;;;;;5015343;28;20113;-87
2022/08/07 05:58:49;;;;;;;9.48;6.35;;;16.50;92.40;;;;;;5015549;28;20026;-87
2022/08/07 06:01:16;;;;;;;11.98;6.90;;;16.50;92.40;;;;;;5016828;28;20038;-89
2022/08/07 06:03:52;;;;;;;9.80;6.80;;;16.50;92.50;;;;;;4999244;28;20068;-87
2022/08/07 06:06:20;;;;;;;10.20;6.43;;;16.60;92.50;;;;;;5032046;28;20033;-87
2022/08/07 06:08:46;;;;;;;8.43;6.18;;;16.60;92.60;;;;;;5017625;28;20091;-86
2022/08/07 06:11:12;;;;;;;8.30;6.40;;;16.60;92.60;;;;;;5015567;28;20026;-87
2022/08/07 06:13:38;;;;;;;11.38;6.53;;;16.70;92.70;;;;;;5015748;28;20026;-87
2022/08/07 06:16:06;;;;;;;8.57;6.00;;;16.70;92.60;;;;;;5015407;28;20045;-87
2022/08/07 06:18:32;;;;;;;13.10;6.05;;;16.70;92.60;;;;;;5013496;28;20363;-87
2022/08/07 06:21:00;;;;;;;9.95;6.43;;;16.70;92.70;;;;;;5018588;28;20458;-87
2022/08/07 06:23:26;;;;;;;17.25;7.38;;;16.80;92.80;;;;;;5018873;28;20031;-87
2022/08/07 06:25:52;;;;;;;10.93;6.75;;;16.80;92.80;;;;;;5018680;28;20061;-87
2022/08/07 06:28:18;;;;;;;16.48;6.63;;;16.90;92.90;;;;;;5036522;28;20540;-88
2022/08/07 06:30:44;;;;;;;10.75;6.40;;;16.90;92.90;;;;;;5020094;28;20112;-87
2022/08/07 06:33:10;;;;;;;9.75;6.25;;;16.90;92.90;;;;;;5020290;28;20469;-87
2022/08/07 06:35:36;;;;;;;11.77;6.13;;;16.90;93.00;;;;;;5016881;28;20065;-88
2022/08/07 06:38:03;;;;;;;7.28;5.38;;;17.00;93.10;;;;;;5049852;28;20116;-88
2022/08/07 06:40:46;;;;;;;8.48;5.70;;;17.00;93.10;;;;;;5052195;28;20457;-87
2022/08/07 06:43:12;;;;;;;8.98;5.40;;;17.10;93.20;;;;;;5018791;28;20025;-88
2022/08/07 06:45:38;;;;;;;7.78;5.55;;;17.10;93.30;;;;;;5015282;28;20097;-88
2022/08/07 06:48:05;;;;;;;8.55;5.57;;;17.20;93.40;;;;;;5001544;28;20073;-88
2022/08/07 06:50:34;;;;;;;8.20;5.60;;;17.20;93.30;;;;;;5018965;28;20028;-88
2022/08/07 06:53:01;;;;;;;7.32;5.45;;;17.20;93.20;;;;;;5018784;28;20137;-88
2022/08/07 06:55:30;;;;;;;7.63;5.60;;;17.30;93.20;;;;;;5034960;28;20373;-88
2022/08/07 06:58:02;;;;;;;6.97;5.10;;;17.30;93.20;;;;;;5002090;28;20171;-88
2022/08/07 07:00:34;;;;;;;7.53;5.30;;;17.40;93.10;;;;;;5018171;28;20014;-88
2022/08/07 07:03:00;;;;;;;7.00;5.07;;;17.40;93.00;;;;;;5023249;28;20034;-88
2022/08/07 07:05:26;;;;;;;8.60;6.30;;;17.50;93.10;;;;;;5039844;28;20035;-92
2022/08/07 07:07:52;;;;;;;6.60;5.05;;;17.50;93.00;;;;;;5041911;28;20021;-89
2022/08/07 07:10:27;;;;;;;8.65;5.18;;;17.60;93.00;;;;;;5053035;28;20045;-89
2022/08/07 07:12:56;;;;;;;7.82;5.55;;;17.60;92.80;;;;;;5054892;28;20076;-87
2022/08/07 07:15:35;;;;;;;7.80;5.07;;;17.70;92.90;;;;;;5037916;28;20025;-88
2022/08/07 07:18:19;;;;;;;7.50;5.75;;;17.80;92.90;;;;;;5037947;28;20010;-88
2022/08/07 07:21:09;;;;;;;7.72;5.13;;;17.80;92.90;;;;;;5057539;28;20333;-89
2022/08/07 07:23:35;;;;;;;6.65;5.00;;;17.90;92.80;;;;;;5035970;28;20021;-88
2022/08/07 07:26:04;;;;;;;8.60;5.05;;;18.00;92.70;;;;;;5073369;28;20105;-88
2022/08/07 07:28:52;;;;;;;7.25;5.03;;;18.00;92.60;;;;;;5032474;28;20021;-88
2022/08/07 07:31:25;;;;;;;9.27;5.18;;;18.10;92.50;;;;;;5055394;28;20036;-88
2022/08/07 07:33:57;;;;;;;6.75;4.85;;;18.20;92.60;;;;;;5054269;28;20018;-87
2022/08/07 07:36:24;;;;;;;7.65;5.07;;;18.30;92.60;;;;;;5039381;28;20025;-88
2022/08/07 07:38:50;;;;;;;6.95;4.10;;;18.40;92.70;;;;;;5041029;28;20005;-87
2022/08/07 07:41:18;;;;;;;7.10;3.63;;;18.40;92.60;;;;;;5018664;28;20029;-88
2022/08/07 07:43:47;;;;;;;5.03;3.30;;;18.50;92.30;;;;;;5028088;28;20022;-87
2022/08/07 07:46:14;;;;;;;6.97;3.72;;;18.60;92.10;;;;;;5040394;28;20026;-88
2022/08/07 07:48:41;;;;;;;6.43;3.28;;;18.60;91.80;;;;;;5043390;28;20025;-88
2022/08/07 07:51:08;;;;;;;4.90;3.10;;;18.80;92.20;;;;;;5049223;28;20025;-89
2022/08/07 07:53:37;;;;;;;5.43;3.50;;;18.90;91.90;;;;;;5036968;28;20022;-89
2022/08/07 07:56:05;;;;;;;7.47;3.47;;;19.00;91.70;;;;;;5029795;28;20051;-88
2022/08/07 07:58:36;;;;;;;5.13;3.42;;;19.00;91.50;;;;;;5044003;28;20044;-88
2022/08/07 08:01:04;;;;;;;6.03;4.00;;;19.10;91.50;;;;;;5043341;28;20040;-89
2022/08/07 08:03:32;;;;;;;7.03;3.55;;;19.20;91.40;;;;;;5040116;28;20006;-88
2022/08/07 08:05:59;;;;;;;5.93;3.20;;;19.30;91.30;;;;;;5040733;28;20017;-89
2022/08/07 08:08:29;;;;;;;4.55;2.90;;;19.40;91.00;;;;;;5073827;28;20047;-88
2022/08/07 08:10:56;;;;;;;5.22;3.30;;;19.50;90.80;;;;;;5016003;28;20030;-87
2022/08/07 08:13:25;;;;;;;4.82;3.15;;;19.60;90.80;;;;;;5020435;28;20236;-88
2022/08/07 08:15:51;;;;;;;7.32;3.38;;;19.70;90.70;;;;;;5036447;28;20022;-88
2022/08/07 08:18:19;;;;;;;5.00;3.33;;;19.80;90.60;;;;;;5037308;28;20034;-87
2022/08/07 08:20:46;;;;;;;5.53;3.05;;;19.90;90.40;;;;;;5013550;28;20113;-88
2022/08/07 08:28:50;;;;;;;4.20;2.30;;;20.20;90.10;;;;;;5029524;28;20079;-88
2022/08/07 08:31:29;;;;;;;6.63;2.90;;;20.30;90.10;;;;;;5025256;28;20026;-88
2022/08/07 08:33:56;;;;;;;5.55;2.60;;;20.40;89.80;;;;;;4999397;28;20030;-88
2022/08/07 08:36:25;;;;;;;4.30;2.20;;;20.50;88.70;;;;;;4999617;28;20462;-87
2022/08/07 08:38:54;;;;;;;3.83;2.10;;;20.60;88.20;;;;;;4997851;28;20478;-80
2022/08/07 08:41:30;;;;;;;5.70;2.10;;;20.60;88.20;;;;;;5004323;28;20044;-78
2022/08/07 08:44:02;;;;;;;4.63;2.65;;;20.70;87.60;;;;;;5020003;28;20037;-84
2022/08/07 08:46:30;;;;;;;5.50;2.05;;;20.80;87.10;;;;;;5013472;28;20378;-84
2022/08/07 08:49:22;;;;;;;3.92;1.77;;;20.90;86.40;;;;;;5013261;28;20084;-85
2022/08/07 08:52:07;;;;;;;5.30;2.08;;;21.00;85.80;;;;;;5021182;28;20022;-85
2022/08/07 08:54:40;;;;;;;4.13;2.00;;;21.10;86.00;;;;;;5032392;28;20362;-85
2022/08/07 08:57:31;;;;;;;2.88;1.73;;;21.20;85.30;;;;;;5022936;28;20104;-85
2022/08/07 09:00:10;;;;;;;3.40;2.00;;;21.20;85.30;;;;;;5007860;28;20077;-85
2022/08/07 09:02:48;;;;;;;3.03;1.80;;;21.30;85.60;;;;;;5008456;28;20377;-87
2022/08/07 09:05:39;;;;;;;2.75;1.63;;;21.40;85.60;;;;;;5015932;28;20033;-85
2022/08/07 09:08:17;;;;;;;3.10;1.90;;;21.50;82.50;;;;;;5014257;28;20025;-85
2022/08/07 09:11:05;;;;;;;2.47;1.40;;;21.60;82.10;;;;;;5024704;28;20111;-85
2022/08/07 09:13:43;;;;;;;2.95;1.35;;;21.60;81.00;;;;;;5032016;28;20021;-85
2022/08/07 09:16:59;;;;;;;4.57;1.80;;;21.70;80.60;;;;;;5033054;28;20079;-85
2022/08/07 09:20:19;;;;;;;3.40;1.70;;;21.80;74.50;;;;;;5003327;28;20060;-83
2022/08/07 09:23:05;;;;;;;3.15;1.75;;;21.80;76.30;;;;;;4958367;28;20515;-83
2022/08/07 09:26:03;;;;;;;4.57;2.20;;;21.90;76.50;;;;;;4959037;28;20089;-83
2022/08/07 09:28:40;;;;;;;3.00;1.70;;;22.00;76.50;;;;;;5008530;28;20041;-83
2022/08/07 09:31:18;;;;;;;4.47;1.90;;;22.10;76.70;;;;;;5002349;28;20499;-82
2022/08/07 09:34:06;;;;;;;2.92;2.05;;;22.10;77.20;;;;;;5018754;28;20035;-84
2022/08/07 09:36:38;;;;;;;3.13;2.05;;;22.20;77.70;;;;;;5031826;28;20416;-87
2022/08/07 09:39:41;;;;;;;3.22;1.75;;;22.30;78.10;;;;;;5009410;28;20029;-83
2022/08/07 09:42:13;;;;;;;5.70;2.03;;;22.40;78.10;;;;;;5017935;28;20108;-83
2022/08/07 09:45:11;;;;;;;3.90;2.00;;;22.50;77.60;;;;;;5034828;28;20018;-83
2022/08/07 09:47:58;;;;;;;1.98;1.65;;;22.50;76.20;;;;;;5034739;28;20022;-82
2022/08/07 09:50:30;;;;;;;4.05;1.70;;;22.60;76.30;;;;;;5018472;28;20014;-83
2022/08/07 09:53:01;;;;;;;3.15;1.60;;;22.70;76.30;;;;;;5017824;28;20029;-82
2022/08/07 09:55:49;;;;;;;;;;;22.80;75.80;;;;;;5018674;28;20021;-86
2022/08/07 09:58:48;;;;;;;3.17;1.42;;;22.80;74.30;;;;;;5000335;28;19913;-87
2022/08/07 10:01:45;;;;;;;3.47;1.40;;;22.90;74.90;;;;;;5003179;28;20034;-88
2022/08/07 10:04:32;;;;;;;2.15;1.60;;;23.00;74.60;;;;;;5009440;28;20021;-88
2022/08/07 10:07:20;;;;;;;3.38;1.77;;;23.10;74.00;;;;;;5037038;28;20028;-87
2022/08/07 10:10:02;;;;;;;2.80;1.33;;;23.10;73.70;;;;;;5036449;28;20053;-88
2022/08/07 10:12:52;;;;;;;1.95;1.25;;;23.20;74.00;;;;;;5036330;28;20025;-88
2022/08/07 10:15:27;;;;;;;2.17;1.30;;;23.30;73.80;;;;;;5019098;28;20535;-88
2022/08/07 10:18:14;;;;;;;2.70;1.60;;;23.40;73.80;;;;;;5031247;28;20026;-88
2022/08/07 10:21:20;;;;;;;1.60;1.10;;;23.50;73.40;;;;;;5018785;28;20376;-88
2022/08/07 10:24:06;;;;;;;1.58;1.10;;;23.50;73.10;;;;;;5035675;28;20120;-90
2022/08/07 10:26:46;;;;;;;1.42;1.05;;;23.60;72.40;;;;;;5036932;28;20017;-87
2022/08/07 10:29:33;;;;;;;2.03;1.33;;;23.60;71.10;;;;;;5033434;28;20025;-87
2022/08/07 10:32:18;;;;;;;1.85;1.42;;;23.70;70.30;;;;;;5008961;28;20531;-87
2022/08/07 10:35:06;;;;;;;2.33;1.23;;;23.80;69.60;;;;;;5016635;28;20124;-87
2022/08/07 10:37:34;;;;;;;3.40;1.17;;;23.80;69.40;;;;;;5042972;28;20029;-87
2022/08/07 10:40:21;;;;;;;2.78;1.60;;;23.90;68.50;;;;;;5038949;28;20068;-87
2022/08/07 10:42:52;;;;;;;2.35;1.23;;;23.90;67.50;;;;;;5005389;28;20029;-87
2022/08/07 10:45:27;;;;;;;4.72;1.77;;;24.00;66.80;;;;;;5034830;28;20018;-88
2022/08/07 10:48:20;;;;;;;2.00;1.25;;;24.00;65.90;;;;;;5010316;28;20022;-91
2022/08/07 10:51:06;;;;;;;5.18;1.50;;;24.10;65.20;;;;;;5042081;28;20018;-88
2022/08/07 10:54:00;;;;;;;2.83;1.60;;;24.10;65.50;;;;;;5058930;28;20029;-88
2022/08/07 10:57:03;;;;;;;3.00;1.48;;;24.20;65.00;;;;;;5039557;28;20117;-87
2022/08/07 10:59:47;;;;;;;3.00;1.50;;;24.30;64.70;;;;;;5041735;28;20033;-88
2022/08/07 11:02:45;;;;;;;2.05;1.52;;;24.30;64.00;;;;;;5058601;28;20025;-89
2022/08/07 11:05:16;;;;;;;2.70;1.77;;;24.40;62.70;;;;;;5034887;28;20025;-88
2022/08/07 11:08:08;;;;;;;2.63;1.60;;;24.40;61.50;;;;;;5037303;28;20079;-87
2022/08/07 11:11:11;;;;;;;2.75;1.70;;;24.40;60.60;;;;;;5006256;28;20496;-87
2022/08/07 11:13:45;;;;;;;3.97;1.40;;;24.50;61.20;;;;;;5014733;28;20091;-88
2022/08/07 11:16:36;;;;;;;4.72;1.58;;;24.50;61.10;;;;;;5018771;28;20026;-90
2022/08/07 11:19:20;;;;;;;;;;;24.50;59.50;;;;;;4990018;28;20474;-88
2022/08/07 11:22:12;;;;;;;2.70;1.60;;;24.60;60.60;;;;;;5025964;28;19909;-88
2022/08/07 11:24:47;;;;;;;2.20;1.50;;;24.60;58.70;;;;;;5017288;28;20025;-87
2022/08/07 11:27:26;;;;;;;4.00;1.85;;;24.70;59.60;;;;;;5010787;28;20021;-87
2022/08/07 11:30:04;;;;;;;2.83;1.63;;;24.70;58.00;;;;;;5005191;28;20482;-87
2022/08/07 11:32:45;;;;;;;2.08;1.45;;;24.80;57.90;;;;;;5031517;28;20470;-89
2022/08/07 11:35:24;;;;;;;5.00;1.70;;;24.90;57.80;;;;;;5013585;28;20486;-89
2022/08/07 11:38:13;;;;;;;3.08;1.92;;;24.90;58.10;;;;;;5014960;28;20020;-86
2022/08/07 11:40:59;;;;;;;3.90;1.95;;;25.00;58.90;;;;;;5023644;28;20028;-87
2022/08/07 11:43:31;;;;;;;2.90;1.90;;;25.10;58.70;;;;;;5039688;28;20022;-80
2022/08/07 11:46:09;;;;;;;3.58;1.85;;;25.20;57.40;;;;;;5029450;28;20018;-82
2022/08/07 11:48:53;;;;;;;5.75;2.05;;;25.20;57.10;;;;;;5020952;28;20485;-84
2022/08/07 11:51:34;;;;;;;2.10;1.52;;;25.30;57.10;;;;;;5031580;28;20037;-86
2022/08/07 11:54:16;;;;;;;2.00;1.75;;;25.30;55.40;;;;;;5033382;28;20482;-86
2022/08/07 11:57:00;;;;;;;3.45;1.73;;;25.30;54.90;;;;;;5032234;28;20025;-84
2022/08/07 11:59:40;;;;;;;2.13;1.55;;;25.40;56.00;;;;;;5031562;28;20469;-85
2022/08/07 12:02:33;;;;;;;2.88;2.05;;;25.50;57.20;;;;;;5029276;28;20025;-84
2022/08/07 12:05:37;;;;;;;3.70;2.10;;;25.60;56.20;;;;;;5033660;28;20457;-83
2022/08/07 12:08:23;;;;;;;4.22;2.20;;;25.70;57.00;;;;;;5015647;28;20120;-83
2022/08/07 12:11:09;;;;;;;3.80;2.38;;;25.80;57.70;;;;;;5033758;28;20045;-83
2022/08/07 12:13:43;;;;;;;4.28;2.25;;;25.90;58.00;;;;;;5002611;28;20034;-83
2022/08/07 12:16:24;;;;;;;3.88;2.00;;;26.00;58.30;;;;;;5032168;28;20030;-83
2022/08/07 12:19:20;;;;;;;4.60;2.47;;;26.10;58.30;;;;;;5016091;28;20469;-85
2022/08/07 12:22:07;;;;;;;2.92;1.88;;;26.20;58.10;;;;;;5032488;28;20125;-84
2022/08/07 12:27:48;;;;;;;3.55;2.17;;;26.40;57.60;;;;;;5025095;28;20396;-83
2022/08/07 12:30:16;;;;;;;4.18;2.40;;;26.50;57.80;;;;;;5033014;28;20041;-83
2022/08/07 12:33:04;;;;;;;4.03;2.30;;;26.50;57.10;;;;;;5019264;28;20033;-83
2022/08/07 12:35:32;;;;;;;5.03;2.38;;;26.70;57.00;;;;;;5027877;28;20052;-83
2022/08/07 12:37:59;;;;;;;3.92;2.58;;;26.70;56.80;;;;;;5031860;28;20461;-83
2022/08/07 12:40:29;;;;;;;3.50;2.40;;;26.80;55.80;;;;;;5014869;28;20017;-76
2022/08/07 12:43:01;;;;;;;4.80;2.15;;;26.80;54.90;;;;;;5032400;28;20100;-77
2022/08/07 12:45:44;;;;;;;3.50;2.25;;;26.90;54.90;;;;;;5014428;28;20108;-79
2022/08/07 12:48:23;;;;;;;2.90;1.90;;;26.90;55.70;;;;;;5032274;28;20033;-78
2022/08/07 12:51:18;;;;;;;3.92;2.40;;;27.00;55.90;;;;;;5032006;28;20049;-85
2022/08/07 12:54:10;;;;;;;4.70;2.00;;;27.10;56.00;;;;;;5003753;28;20425;-88
2022/08/07 12:56:45;;;;;;;3.03;1.90;;;27.10;56.10;;;;;;5015163;28;20033;-88
2022/08/07 12:59:20;;;;;;;3.15;2.40;;;27.20;55.80;;;;;;5031005;28;20009;-88
2022/08/07 13:02:27;;;;;;;5.05;2.10;;;27.30;54.90;;;;;;5028502;28;20033;-88
2022/08/07 13:05:16;;;;;;;3.92;2.33;;;27.40;55.20;;;;;;5027510;28;20022;-88
2022/08/07 13:08:10;;;;;;;3.13;2.03;;;27.50;55.00;;;;;;5021341;28;20021;-88
2022/08/07 13:11:17;;;;;;;4.05;1.90;;;27.50;54.30;;;;;;5031954;28;20042;-88
2022/08/07 13:14:24;;;;;;;2.95;1.88;;;27.60;53.90;;;;;;4978866;28;20045;-88
2022/08/07 13:17:03;;;;;;;5.78;2.20;;;27.60;54.30;;;;;;5006376;28;20034;-87
2022/08/07 13:19:45;;;;;;;2.88;2.10;;;27.70;53.20;;;;;;5015670;28;20026;-87
2022/08/07 13:22:38;;;;;;;3.90;2.22;;;27.80;53.50;;;;;;5033215;28;20497;-89
2022/08/07 13:25:12;;;;;;;3.45;1.92;;;27.80;53.40;;;;;;5006266;28;20018;-87
2022/08/07 13:27:51;;;;;;;2.78;1.92;;;27.80;53.70;;;;;;5019602;28;20018;-88
2022/08/07 13:30:18;;;;;;;3.58;2.28;;;27.90;54.10;;;;;;5044002;28;20089;-89